To NAV CANADA Home Page Login to a new session Search on AWWS site Disclaimer Vers la page française équivalente Tips FAQ What's new on the site To the Forecasts and Observations / NOTAM section To "File a Flight Plan" website Publications and other links Update of the User's profile FIC Telephone Numbers My Weather Data Folder Route Weather Data Regional Weather Data Local Weather Data To the Forecasts and Observations / NOTAM section
Request Generated 12/03/2021 at 10:59:11 UTC . Weather information available at that time is displayed.

METAR/TAF

If you find any discrepancies between the coded METAR/TAF and the plain language METAR/TAF please use the coded METAR/TAF. LWIS bulletins are not decoded in plain language.

CALGARY/YYC CALGARY INTL/AB    

METAR CYYC 031000Z 17005KT 4SM -SN SCT024 OVC038 M04/M06 A3013 RMK SC3SC5 -SN I MT SLP263=
METAR
LOCATION
CYYC - CALGARY/YYC CALGARY INTL/AB
DATE - TIME
03 DECEMBER 2021 - 1000 UTC
WIND
170 TRUE @ 5  KNOTS
VISIBILITY
4 STAT.  MILES
RUNWAY VISUAL RANGE
WEATHER
LIGHT SNOW
CLOUDINESS
SCATTERED CLOUDS (3/8 - 4/8) 2400  FT
OVERCAST 3800  FT
TEMP / DEWPOINT
-4 C / -6 C
ALTIMETER
30.13 IN HG
RECENT WEATHER
WIND SHEAR

SPECI CYYC 030917Z 08002KT 12SM FEW012 BKN025 OVC043 M04/M06 A3013 RMK SF1SC5SC SLP260=
SPECI
LOCATION
CYYC - CALGARY/YYC CALGARY INTL/AB
DATE - TIME
03 DECEMBER 2021 - 0917 UTC
WIND
80 TRUE @ 2  KNOTS
VISIBILITY
12 STAT.  MILES
RUNWAY VISUAL RANGE
WEATHER
CLOUDINESS
FEW CLOUDS (1/8 - 2/8) 1200  FT
BROKEN CLOUDS (5/8 - 7/8) 2500  FT
OVERCAST 4300  FT
TEMP / DEWPOINT
-4 C / -6 C
ALTIMETER
30.13 IN HG
RECENT WEATHER
WIND SHEAR

METAR CYYC 030900Z 07006KT 9SM -SN FEW010 BKN026 OVC038 M04/M06 A3012 RMK SF2SC C3 PCPN VRY LGT SLP258=
METAR
LOCATION
CYYC - CALGARY/YYC CALGARY INTL/AB
DATE - TIME
03 DECEMBER 2021 - 0900 UTC
WIND
70 TRUE @ 6  KNOTS
VISIBILITY
9 STAT.  MILES
RUNWAY VISUAL RANGE
WEATHER
LIGHT SNOW
CLOUDINESS
FEW CLOUDS (1/8 - 2/8) 1000  FT
BROKEN CLOUDS (5/8 - 7/8) 2600  FT
OVERCAST 3800  FT
TEMP / DEWPOINT
-4 C / -6 C
ALTIMETER
30.12 IN HG
RECENT WEATHER
WIND SHEAR

SPECI CYYC 030822Z 07006KT 4SM -SN BKN025 OVC041 M04/M05 A3013 RMK SN2SC5SC1 SL 58=
SPECI
LOCATION
CYYC - CALGARY/YYC CALGARY INTL/AB
DATE - TIME
03 DECEMBER 2021 - 0822 UTC
WIND
70 TRUE @ 6  KNOTS
VISIBILITY
4 STAT.  MILES
RUNWAY VISUAL RANGE
WEATHER
LIGHT SNOW
CLOUDINESS
BROKEN CLOUDS (5/8 - 7/8) 2500  FT
OVERCAST 4100  FT
TEMP / DEWPOINT
-4 C / -5 C
ALTIMETER
30.13 IN HG
RECENT WEATHER
WIND SHEAR

METAR CYYC 030800Z 07006KT 2 1/2SM -SN OVC025 M04/M05 A3013 RMK SN3SC5 SLP260=
METAR
LOCATION
CYYC - CALGARY/YYC CALGARY INTL/AB
DATE - TIME
03 DECEMBER 2021 - 0800 UTC
WIND
70 TRUE @ 6  KNOTS
VISIBILITY
2 1/2 STAT.  MILES
RUNWAY VISUAL RANGE
WEATHER
LIGHT SNOW
CLOUDINESS
OVERCAST 2500  FT
TEMP / DEWPOINT
-4 C / -5 C
ALTIMETER
30.13 IN HG
RECENT WEATHER
WIND SHEAR

TAF CYYC 030845Z 0309/0406 07007KT P6SM -SN FEW012 BKN030 BKN090 TEMPO 0309/0311 2SM -SHSN VV015 FM031100 14005KT P6SM -SN BKN025 OVC050 TEMPO 0311/0315 P6SM NSW SCT025 BKN070 BECMG 0315/0317 20004KT FM031700 23005KT P6SM SCT030 BKN070 BECMG 0319/0321 20004KT FEW070 FM040000 18005KT P6SM BKN240 BECMG 0402/0404 22005KT BKN180 RMK NXT FCST BY 031200Z=
TAF
LOCATION

CYYC - CALGARY/YYC CALGARY INTL/AB
VALIDITY [UTC]
03 DEC - 0845 to
04 DEC - 0600
 
TIMES
[UTC]
WIND
[DEGREES TRUE]
VISIBILITY
[STAT. MILES]
WEATHER
CLOUDINESS
[FEET AGL]
 
03 DEC - 0900 to
03 DEC - 1100
70 @ 7 KNOTS
6+
LIGHT SNOW
1200 FEW
3000 BROKEN
9000 BROKEN
TEMPORARY CHANGES
03 DEC - 0900 to
03 DEC - 1100
 
2
LIGHT SNOW SHOWER
VERTICAL VISIBILITY 1500
 
03 DEC - 1100 to
03 DEC - 1700
140 @ 5 KNOTS
6+
LIGHT SNOW
2500 BROKEN
5000 OVERCAST
TEMPORARY CHANGES
03 DEC - 1100 to
03 DEC - 1500
 
6+
NIL
2500 SCATTERED
7000 BROKEN
BECOMING
03 DEC - 1500 to
03 DEC - 1700
200 @ 4 KNOTS
 
 
 
 
03 DEC - 1700 to
04 DEC - 0000
230 @ 5 KNOTS
6+
NIL
3000 SCATTERED
7000 BROKEN
BECOMING
03 DEC - 1900 to
03 DEC - 2100
200 @ 4 KNOTS
 
 
7000 FEW
 
04 DEC - 0000 to
04 DEC - 0600
180 @ 5 KNOTS
6+
NIL
24000 BROKEN
BECOMING
04 DEC - 0200 to
04 DEC - 0400
220 @ 5 KNOTS
 
 
18000 BROKEN
REMARKS


Your time UTC time
Weather data provided by Environment Canada and NAV CANADA